createdAt,value
2017-10-01T00:00:36.289Z,99375.63
2017-10-01T00:03:03.847Z,99385.98
2017-10-01T00:05:31.358Z,99384.39
2017-10-01T00:07:58.846Z,99381.73
2017-10-01T00:10:26.337Z,99379.73
2017-10-01T00:12:53.859Z,99384.08
2017-10-01T00:15:21.320Z,99386.64
2017-10-01T00:17:48.853Z,99393.66
2017-10-01T00:20:16.332Z,99401.63
2017-10-01T00:22:43.826Z,99396.34
2017-10-01T00:25:11.338Z,99402.31
2017-10-01T00:27:38.803Z,99405.09
2017-10-01T00:30:06.294Z,99403.48
2017-10-01T00:32:33.754Z,99408.00
2017-10-01T00:35:01.254Z,99411.31
2017-10-01T00:37:28.789Z,99406.68
2017-10-01T00:39:56.362Z,99399.65
2017-10-01T00:42:23.812Z,99399.37
2017-10-01T00:44:51.329Z,99399.39
2017-10-01T00:47:18.830Z,99408.00
2017-10-01T00:49:46.301Z,99408.13
2017-10-01T00:52:13.827Z,99415.55
2017-10-01T00:54:41.385Z,99421.86
2017-10-01T00:57:08.914Z,99418.66
2017-10-01T00:59:36.400Z,99423.69
2017-10-01T01:02:03.898Z,99420.66
2017-10-01T01:04:31.407Z,99420.51
2017-10-01T01:06:58.916Z,99417.73
2017-10-01T01:09:26.433Z,99419.91
2017-10-01T01:11:53.909Z,99486.82
2017-10-01T01:14:21.466Z,99426.81
2017-10-01T01:16:48.937Z,99416.58
2017-10-01T01:19:16.435Z,99414.61
2017-10-01T01:21:43.925Z,99413.05
2017-10-01T01:24:11.437Z,99415.78
2017-10-01T01:26:38.930Z,99414.28
2017-10-01T01:29:06.606Z,99419.49
2017-10-01T01:31:34.080Z,99419.48
2017-10-01T01:34:01.545Z,99430.24
2017-10-01T01:36:29.013Z,99425.06
2017-10-01T01:38:56.537Z,99425.47
2017-10-01T01:41:24.023Z,99426.67
2017-10-01T01:43:51.568Z,99436.22
2017-10-01T01:46:19.069Z,99440.45
2017-10-01T01:48:46.559Z,99442.31
2017-10-01T01:51:14.152Z,99444.03
2017-10-01T01:53:41.637Z,99448.14
2017-10-01T01:56:09.118Z,99443.01
2017-10-01T01:58:36.630Z,99445.39
2017-10-01T02:01:04.120Z,99442.34
2017-10-01T02:03:31.601Z,99447.13
2017-10-01T02:05:59.829Z,99457.59
2017-10-01T02:08:27.312Z,99456.56
2017-10-01T02:10:54.778Z,99478.94
2017-10-01T02:13:22.278Z,99458.52
2017-10-01T02:15:49.735Z,99468.47
2017-10-01T02:18:17.235Z,99465.43
2017-10-01T02:20:44.725Z,99466.34
2017-10-01T02:23:12.177Z,99476.55
2017-10-01T02:25:39.656Z,99484.00
2017-10-01T02:28:07.137Z,99490.08
2017-10-01T02:30:34.620Z,99493.22
2017-10-01T02:33:02.113Z,99489.64
2017-10-01T02:35:29.593Z,99486.72
2017-10-01T02:37:57.101Z,99496.80
2017-10-01T02:40:24.589Z,99505.59
2017-10-01T02:42:52.056Z,99500.39
2017-10-01T02:45:19.593Z,99503.17
2017-10-01T02:47:47.589Z,99502.12
2017-10-01T02:50:15.093Z,99502.99
2017-10-01T02:52:42.602Z,99510.03
2017-10-01T02:55:10.065Z,99512.05
2017-10-01T02:57:37.566Z,99513.76
2017-10-01T03:00:05.058Z,99517.95
2017-10-01T03:02:32.547Z,99518.68
2017-10-01T03:05:00.015Z,99522.27
2017-10-01T03:07:27.511Z,99523.34
2017-10-01T03:09:54.993Z,99525.72
2017-10-01T03:12:22.489Z,99519.91
2017-10-01T03:14:50.451Z,99532.39
2017-10-01T03:17:17.982Z,99528.97
2017-10-01T03:19:45.454Z,99532.79
2017-10-01T03:22:12.964Z,99538.23
2017-10-01T03:24:40.414Z,99543.66
2017-10-01T03:27:07.895Z,99539.41
2017-10-01T03:29:35.431Z,99539.45
2017-10-01T03:32:02.912Z,99542.77
2017-10-01T03:34:30.402Z,99543.66
2017-10-01T03:36:57.856Z,99548.32
2017-10-01T03:39:25.365Z,99544.31
2017-10-01T03:41:52.819Z,99538.83
2017-10-01T03:44:20.312Z,99546.77
2017-10-01T03:46:47.772Z,99543.93
2017-10-01T03:49:15.289Z,99540.17
2017-10-01T03:51:42.760Z,99534.56
2017-10-01T03:54:10.225Z,99533.93
2017-10-01T03:56:37.717Z,99524.39
2017-10-01T03:59:05.197Z,99528.59
2017-10-01T04:01:32.681Z,99526.84
2017-10-01T04:04:00.141Z,99525.91
2017-10-01T04:06:27.618Z,99518.37
2017-10-01T04:08:55.073Z,99514.53
2017-10-01T04:11:22.557Z,99522.80
2017-10-01T04:13:50.024Z,99522.26
2017-10-01T04:16:17.864Z,99522.26
2017-10-01T04:18:45.309Z,99521.03
2017-10-01T04:21:12.765Z,99526.06
2017-10-01T04:23:40.262Z,99524.12
2017-10-01T04:26:07.736Z,99528.48
2017-10-01T04:28:35.230Z,99526.95
2017-10-01T04:31:02.755Z,99530.91
2017-10-01T04:33:30.245Z,99524.76
2017-10-01T04:35:57.696Z,99523.80
2017-10-01T04:38:25.200Z,99530.97
2017-10-01T04:40:52.694Z,99532.44
2017-10-01T04:43:20.195Z,99527.20
2017-10-01T04:45:47.650Z,99531.38
2017-10-01T04:48:15.157Z,99530.38
2017-10-01T04:50:42.624Z,99533.91
2017-10-01T04:53:10.121Z,99531.06
2017-10-01T04:55:37.577Z,99533.53
2017-10-01T04:58:05.086Z,99536.03
2017-10-01T05:00:32.560Z,99538.73
2017-10-01T05:03:00.053Z,99528.08
2017-10-01T05:05:27.539Z,99545.34
2017-10-01T05:07:55.027Z,99545.98
2017-10-01T05:10:23.453Z,99546.08
2017-10-01T05:12:50.914Z,99552.43
2017-10-01T05:15:18.409Z,99559.52
2017-10-01T05:17:45.861Z,99564.30
2017-10-01T05:20:13.367Z,99565.50
2017-10-01T05:22:40.849Z,99571.63
2017-10-01T05:25:08.325Z,99571.73
2017-10-01T05:27:35.815Z,99572.69
2017-10-01T05:30:03.304Z,99573.63
2017-10-01T05:32:30.810Z,99572.70
2017-10-01T05:34:58.289Z,99574.87
2017-10-01T05:37:25.773Z,99575.22
2017-10-01T05:39:53.233Z,99572.16
2017-10-01T05:42:20.746Z,99587.74
2017-10-01T05:44:48.229Z,99596.08
2017-10-01T05:47:15.760Z,99595.55
2017-10-01T05:49:43.277Z,99594.36
2017-10-01T05:52:10.794Z,99598.67
2017-10-01T05:54:38.297Z,99595.42
2017-10-01T05:57:05.803Z,99586.23
2017-10-01T05:59:33.305Z,99586.36
2017-10-01T06:02:00.769Z,99589.06
2017-10-01T06:04:28.291Z,99593.55
2017-10-01T06:06:55.771Z,99591.20
2017-10-01T06:09:23.274Z,99591.66
2017-10-01T06:11:50.770Z,99585.38
2017-10-01T06:14:18.270Z,99581.81
2017-10-01T06:16:45.737Z,99588.50
2017-10-01T06:19:13.269Z,99579.17
2017-10-01T06:21:40.772Z,99580.56
2017-10-01T06:24:08.279Z,99589.34
2017-10-01T06:26:35.763Z,99594.05
2017-10-01T06:29:03.239Z,99598.06
2017-10-01T06:31:30.749Z,99597.15
2017-10-01T06:33:58.226Z,99590.54
2017-10-01T06:36:25.706Z,99584.56
2017-10-01T06:38:53.223Z,99584.45
2017-10-01T06:41:20.686Z,99580.08
2017-10-01T06:43:48.241Z,99573.22
2017-10-01T06:46:15.740Z,99569.39
2017-10-01T06:48:43.255Z,99573.64
2017-10-01T06:51:10.795Z,99570.48
2017-10-01T06:53:38.285Z,99564.24
2017-10-01T06:56:05.777Z,99569.17
2017-10-01T06:58:33.307Z,99564.14
2017-10-01T07:01:00.769Z,99574.12
2017-10-01T07:03:28.278Z,99577.17
2017-10-01T07:05:55.746Z,99582.07
2017-10-01T07:08:23.235Z,99591.25
2017-10-01T07:10:50.746Z,99595.90
2017-10-01T07:13:18.262Z,99590.98
2017-10-01T07:15:45.777Z,99591.75
2017-10-01T07:18:13.260Z,99593.41
2017-10-01T07:20:40.736Z,99591.23
2017-10-01T07:23:08.209Z,99601.03
2017-10-01T07:25:35.717Z,99600.90
2017-10-01T07:28:03.216Z,99601.19
2017-10-01T07:30:30.712Z,99602.63
2017-10-01T07:32:58.179Z,99611.20
2017-10-01T07:35:25.659Z,99605.88
2017-10-01T07:37:53.118Z,99601.24
2017-10-01T07:40:20.614Z,99605.70
2017-10-01T07:42:48.114Z,99606.53
2017-10-01T07:45:15.577Z,99606.94
2017-10-01T07:47:43.074Z,99601.44
2017-10-01T07:50:10.536Z,99601.81
2017-10-01T07:52:38.053Z,99593.36
2017-10-01T07:55:05.530Z,99600.83
2017-10-01T07:57:33.654Z,99600.84
2017-10-01T08:00:01.168Z,99604.10
2017-10-01T08:02:28.675Z,99605.92
2017-10-01T08:04:56.173Z,99608.45
2017-10-01T08:07:23.649Z,99606.01
2017-10-01T08:09:54.475Z,99610.53
2017-10-01T08:12:21.988Z,99599.38
2017-10-01T08:14:49.469Z,99619.31
2017-10-01T08:17:16.956Z,99613.86
2017-10-01T08:19:44.466Z,99620.08
2017-10-01T08:22:12.013Z,99618.38
2017-10-01T08:24:39.496Z,99621.67
2017-10-01T08:27:06.954Z,99610.80
2017-10-01T08:29:34.456Z,99614.52
2017-10-01T08:32:01.924Z,99622.73
2017-10-01T08:34:29.402Z,99624.49
2017-10-01T08:36:56.895Z,99627.52
2017-10-01T08:39:24.349Z,99632.17
2017-10-01T08:41:51.848Z,99633.92
2017-10-01T08:44:19.297Z,99632.97
2017-10-01T08:49:13.551Z,99631.09
2017-10-01T08:51:41.033Z,99626.98
2017-10-01T08:54:08.543Z,99630.30
2017-10-01T08:56:36.042Z,99630.31
2017-10-01T08:59:03.534Z,99634.40
2017-10-01T09:01:31.052Z,99628.00
2017-10-01T09:03:58.548Z,99626.39
2017-10-01T09:06:26.005Z,99627.83
2017-10-01T09:08:53.497Z,99625.34
2017-10-01T09:11:20.994Z,99628.52
2017-10-01T09:13:49.257Z,99628.08
2017-10-01T09:16:16.764Z,99634.34
2017-10-01T09:18:44.257Z,99628.58
2017-10-01T09:21:11.776Z,99629.23
2017-10-01T09:23:39.285Z,99622.33
2017-10-01T09:26:06.803Z,99618.05
2017-10-01T09:28:34.277Z,99610.13
2017-10-01T09:31:01.778Z,99607.86
2017-10-01T09:33:29.284Z,99609.19
2017-10-01T09:35:56.972Z,99613.16
2017-10-01T09:38:25.052Z,99610.01
2017-10-01T09:40:52.519Z,99599.77
2017-10-01T09:43:20.049Z,99597.50
2017-10-01T09:45:47.553Z,99598.98
2017-10-01T09:48:15.223Z,99604.20
2017-10-01T09:50:42.681Z,99606.54
2017-10-01T09:53:10.178Z,99603.19
2017-10-01T09:55:38.344Z,99595.38
2017-10-01T09:58:05.854Z,99591.30
2017-10-01T10:00:33.439Z,99588.53
2017-10-01T10:03:00.935Z,99588.55
2017-10-01T10:05:28.488Z,99594.44
2017-10-01T10:07:55.972Z,99596.91
2017-10-01T10:10:23.492Z,99597.69
2017-10-01T10:12:50.969Z,99590.65
2017-10-01T10:15:18.771Z,99591.37
2017-10-01T10:17:46.245Z,99589.19
2017-10-01T10:20:13.751Z,99589.78
2017-10-01T10:22:41.268Z,99584.94
2017-10-01T10:25:08.762Z,99589.91
2017-10-01T10:27:36.262Z,99588.67
2017-10-01T10:30:03.721Z,99584.35
2017-10-01T10:32:31.227Z,99569.05
2017-10-01T10:34:58.684Z,99583.38
2017-10-01T10:37:26.197Z,99580.16
2017-10-01T10:39:53.689Z,99569.99
2017-10-01T10:42:22.254Z,99585.06
2017-10-01T10:44:50.058Z,99572.54
2017-10-01T10:47:17.547Z,99571.20
2017-10-01T10:49:45.049Z,99575.61
2017-10-01T10:52:12.536Z,99576.01
2017-10-01T10:54:40.100Z,99575.53
2017-10-01T10:57:07.588Z,99582.05
2017-10-01T10:59:35.095Z,99581.34
2017-10-01T11:02:02.630Z,99579.34
2017-10-01T11:04:30.158Z,99574.38
2017-10-01T11:06:57.661Z,99579.98
2017-10-01T11:09:25.137Z,99588.52
2017-10-01T11:11:52.653Z,99574.23
2017-10-01T11:14:20.180Z,99564.62
2017-10-01T11:16:47.796Z,99566.19
2017-10-01T11:19:15.399Z,99569.53
2017-10-01T11:21:42.934Z,99565.82
2017-10-01T11:24:10.405Z,99562.84
2017-10-01T11:26:37.895Z,99566.76
2017-10-01T11:29:05.401Z,99563.33
2017-10-01T11:31:32.908Z,99564.29
2017-10-01T11:34:00.377Z,99560.70
2017-10-01T11:36:27.902Z,99561.52
2017-10-01T11:38:55.434Z,99561.78
2017-10-01T11:41:22.917Z,99558.34
2017-10-01T11:43:50.441Z,99556.03
2017-10-01T11:46:17.958Z,99557.47
2017-10-01T11:48:45.734Z,99550.91
2017-10-01T11:51:13.248Z,99548.79
2017-10-01T11:53:40.710Z,99555.02
2017-10-01T11:56:08.567Z,99547.34
2017-10-01T11:58:36.821Z,99550.92
2017-10-01T12:01:04.652Z,99541.70
2017-10-01T12:03:32.169Z,99520.27
2017-10-01T12:05:59.656Z,99532.19
2017-10-01T12:08:27.164Z,99527.80
2017-10-01T12:10:54.653Z,99521.88
2017-10-01T12:13:22.156Z,99515.48
2017-10-01T12:15:49.700Z,99510.12
2017-10-01T12:18:17.209Z,99514.83
2017-10-01T12:20:44.707Z,99516.56
2017-10-01T12:23:12.227Z,99511.38
2017-10-01T12:25:39.714Z,99509.78
2017-10-01T12:28:07.370Z,99503.50
2017-10-01T12:30:34.893Z,99501.62
2017-10-01T12:33:02.405Z,99494.25
2017-10-01T12:35:29.989Z,99503.45
2017-10-01T12:37:57.542Z,99503.57
2017-10-01T12:40:25.068Z,99500.16
2017-10-01T12:42:52.552Z,99497.63
2017-10-01T12:45:20.138Z,99501.14
2017-10-01T12:47:47.628Z,99497.49
2017-10-01T12:50:15.131Z,99507.76
2017-10-01T12:52:42.596Z,99500.48
2017-10-01T12:55:10.131Z,99504.34
2017-10-01T12:57:37.608Z,99496.78
2017-10-01T13:00:05.125Z,99495.98
2017-10-01T13:02:32.615Z,99500.94
2017-10-01T13:05:00.174Z,99503.10
2017-10-01T13:07:27.733Z,99506.33
2017-10-01T13:09:55.252Z,99503.22
2017-10-01T13:12:23.050Z,99494.47
2017-10-01T13:14:50.541Z,99491.12
2017-10-01T13:17:18.110Z,99472.42
2017-10-01T13:19:45.648Z,99486.83
2017-10-01T13:22:13.530Z,99484.38
2017-10-01T13:24:41.004Z,99487.64
2017-10-01T13:27:08.513Z,99482.71
2017-10-01T13:29:36.077Z,99484.69
2017-10-01T13:32:03.569Z,99477.28
2017-10-01T13:34:31.070Z,99475.14
2017-10-01T13:36:58.580Z,99468.77
2017-10-01T13:39:26.111Z,99459.51
2017-10-01T13:41:53.619Z,99471.99
2017-10-01T13:44:21.227Z,99462.98
2017-10-01T13:46:48.763Z,99462.66
2017-10-01T13:49:16.287Z,99460.64
2017-10-01T13:51:43.763Z,99459.75
2017-10-01T13:54:11.288Z,99461.97
2017-10-01T13:56:39.806Z,99464.94
2017-10-01T13:59:07.314Z,99467.36
2017-10-01T14:01:34.866Z,99459.87
2017-10-01T14:04:02.429Z,99457.36
2017-10-01T14:06:29.960Z,99446.32
2017-10-01T14:08:57.459Z,99442.98
2017-10-01T14:11:24.984Z,99442.70
2017-10-01T14:13:52.476Z,99435.73
2017-10-01T14:16:19.995Z,99437.09
2017-10-01T14:18:47.548Z,99443.77
2017-10-01T14:21:15.067Z,99440.83
2017-10-01T14:23:42.607Z,99435.69
2017-10-01T14:26:10.374Z,99429.59
2017-10-01T14:28:37.887Z,99425.72
2017-10-01T14:31:10.876Z,99433.07
2017-10-01T14:33:38.401Z,99434.22
2017-10-01T14:36:06.742Z,99427.42
2017-10-01T14:38:34.250Z,99433.07
2017-10-01T14:41:01.772Z,99436.53
2017-10-01T14:43:29.257Z,99444.16
2017-10-01T14:45:56.838Z,99446.33
2017-10-01T14:48:24.359Z,99440.22
2017-10-01T14:50:51.896Z,99435.97
2017-10-01T14:53:19.405Z,99428.22
2017-10-01T14:55:46.924Z,99423.09
2017-10-01T14:58:14.500Z,99423.28
2017-10-01T15:00:42.473Z,99429.72
2017-10-01T15:03:10.016Z,99430.27
2017-10-01T15:05:37.559Z,99426.66
2017-10-01T15:08:05.102Z,99426.38
2017-10-01T15:10:32.602Z,99422.55
2017-10-01T15:13:00.906Z,99416.45
2017-10-01T15:15:28.431Z,99423.65
2017-10-01T15:17:56.023Z,99407.75
2017-10-01T15:20:23.556Z,99393.84
2017-10-01T15:22:51.383Z,99397.21
2017-10-01T15:25:18.902Z,99401.30
2017-10-01T15:27:46.478Z,99399.05
2017-10-01T15:30:14.029Z,99391.45
2017-10-01T15:32:41.530Z,99394.28
2017-10-01T15:35:09.066Z,99399.30
2017-10-01T15:37:36.594Z,99387.05
2017-10-01T15:40:04.153Z,99389.04
2017-10-01T15:42:31.661Z,99384.33
2017-10-01T15:44:59.236Z,99379.64
2017-10-01T15:47:26.734Z,99385.86
2017-10-01T15:49:54.266Z,99397.66
2017-10-01T15:52:21.804Z,99398.70
2017-10-01T15:54:49.405Z,99393.40
2017-10-01T15:57:16.949Z,99396.87
2017-10-01T15:59:45.376Z,99400.52
2017-10-01T16:02:12.895Z,99392.97
2017-10-01T16:04:40.447Z,99394.21
2017-10-01T16:07:08.024Z,99388.16
2017-10-01T16:09:36.470Z,99402.62
2017-10-01T16:12:03.978Z,99397.56
2017-10-01T16:14:31.535Z,99397.52
2017-10-01T16:16:59.063Z,99404.27
2017-10-01T16:19:26.586Z,99393.86
2017-10-01T16:21:54.994Z,99392.31
2017-10-01T16:24:22.504Z,99387.62
2017-10-01T16:26:49.994Z,99386.86
2017-10-01T16:29:17.782Z,99388.63
2017-10-01T16:31:45.291Z,99383.34
2017-10-01T16:34:12.817Z,99378.41
2017-10-01T16:36:40.304Z,99385.30
2017-10-01T16:39:07.924Z,99381.13
2017-10-01T16:41:35.443Z,99383.05
2017-10-01T16:44:02.956Z,99380.39
2017-10-01T16:46:30.506Z,99377.77
2017-10-01T16:48:58.019Z,99395.97
2017-10-01T16:51:25.559Z,99402.71
2017-10-01T16:53:53.037Z,99406.41
2017-10-01T16:56:20.594Z,99403.84
2017-10-01T16:58:49.675Z,99400.19
2017-10-01T17:01:17.278Z,99397.33
2017-10-01T17:03:44.817Z,99395.24
2017-10-01T17:06:12.342Z,99392.13
2017-10-01T17:08:39.869Z,99390.11
2017-10-01T17:11:07.681Z,99381.99
2017-10-01T17:13:35.185Z,99384.17
2017-10-01T17:16:03.211Z,99288.70
2017-10-01T17:18:30.732Z,99379.62
2017-10-01T17:20:58.262Z,99381.56
2017-10-01T17:23:25.974Z,99387.75
2017-10-01T17:25:53.481Z,99399.06
2017-10-01T17:28:20.964Z,99394.55
2017-10-01T17:30:48.483Z,99399.77
2017-10-01T17:33:16.010Z,99407.59
2017-10-01T17:35:43.955Z,99409.34
2017-10-01T17:38:11.494Z,99403.52
2017-10-01T17:40:39.075Z,99405.13
2017-10-01T17:43:07.252Z,99410.00
2017-10-01T17:45:34.781Z,99412.95
2017-10-01T17:48:03.059Z,99415.25
2017-10-01T17:50:31.668Z,99410.27
2017-10-01T17:53:00.123Z,99416.48
2017-10-01T17:55:27.656Z,99411.97
2017-10-01T17:57:55.174Z,99411.47
2017-10-01T18:00:23.497Z,99415.29
2017-10-01T18:02:52.033Z,99419.57
2017-10-01T18:05:19.637Z,99423.30
2017-10-01T18:07:47.219Z,99422.13
2017-10-01T18:10:14.989Z,99425.13
2017-10-01T18:12:44.642Z,99428.31
2017-10-01T18:15:14.389Z,99419.06
2017-10-01T18:17:41.971Z,99417.57
2017-10-01T18:20:10.065Z,99414.37
2017-10-01T18:22:37.667Z,99402.14
2017-10-01T18:25:05.203Z,99402.48
2017-10-01T18:27:32.675Z,99403.69
2017-10-01T18:30:00.258Z,99413.14
2017-10-01T18:32:27.762Z,99417.38
2017-10-01T18:34:55.348Z,99420.12
2017-10-01T18:37:22.857Z,99420.91
2017-10-01T18:39:50.382Z,99432.70
2017-10-01T18:42:18.741Z,99434.83
2017-10-01T18:44:46.273Z,99436.03
2017-10-01T18:47:13.864Z,99433.17
2017-10-01T18:49:43.215Z,99426.99
2017-10-01T18:52:10.740Z,99432.39
2017-10-01T18:54:38.326Z,99439.75
2017-10-01T18:57:06.013Z,99449.26
2017-10-01T18:59:33.550Z,99447.42
2017-10-01T19:02:01.446Z,99442.17
2017-10-01T19:04:29.186Z,99442.13
2017-10-01T19:06:57.416Z,99442.66
2017-10-01T19:09:25.762Z,99439.59
2017-10-01T19:11:54.089Z,99428.36
2017-10-01T19:14:22.023Z,99431.63
2017-10-01T19:16:50.432Z,99445.80
2017-10-01T19:19:18.743Z,99452.88
2017-10-01T19:21:46.305Z,99448.97
2017-10-01T19:24:14.989Z,99451.97
2017-10-01T19:26:43.693Z,99449.47
2017-10-01T19:29:11.271Z,99453.70
2017-10-01T19:31:39.538Z,99464.44
2017-10-01T19:34:07.068Z,99467.97
2017-10-01T19:36:34.856Z,99467.45
2017-10-01T19:39:03.366Z,99458.13
2017-10-01T19:41:31.211Z,99455.36
2017-10-01T19:43:58.738Z,99451.37
2017-10-01T19:46:26.265Z,99438.77
2017-10-01T19:48:54.944Z,99440.75
2017-10-01T19:51:22.474Z,99435.52
2017-10-01T19:53:49.977Z,99428.47
2017-10-01T19:56:17.558Z,99432.34
2017-10-01T19:58:45.683Z,99436.02
2017-10-01T20:01:13.848Z,99435.73
2017-10-01T20:03:42.290Z,99425.10
2017-10-01T20:06:10.387Z,99433.37
2017-10-01T20:08:37.886Z,99426.33
2017-10-01T20:11:05.719Z,99426.56
2017-10-01T20:13:33.255Z,99426.09
2017-10-01T20:16:00.758Z,99415.97
2017-10-01T20:18:28.292Z,99404.41
2017-10-01T20:20:56.811Z,99392.93
2017-10-01T20:23:25.477Z,99398.13
2017-10-01T20:25:52.971Z,99399.66
2017-10-01T20:28:21.871Z,99395.05
2017-10-01T20:30:49.402Z,99399.16
2017-10-01T20:33:16.959Z,99392.91
2017-10-01T20:35:45.465Z,99397.31
2017-10-01T20:38:13.021Z,99401.92
2017-10-01T20:40:41.358Z,99407.82
2017-10-01T20:43:08.841Z,99404.89
2017-10-01T20:45:36.821Z,99403.14
2017-10-01T20:48:04.415Z,99402.25
2017-10-01T20:50:31.922Z,99398.47
2017-10-01T20:52:59.512Z,99399.08
2017-10-01T20:55:27.048Z,99395.78
2017-10-01T20:57:54.579Z,99394.39
2017-10-01T21:00:22.123Z,99386.15
2017-10-01T21:02:49.642Z,99385.39
2017-10-01T21:05:17.224Z,99388.52
2017-10-01T21:07:44.761Z,99378.01
2017-10-01T21:10:12.318Z,99376.68
2017-10-01T21:12:39.852Z,99374.69
2017-10-01T21:15:07.405Z,99381.47
2017-10-01T21:17:34.965Z,99381.23
2017-10-01T21:20:02.465Z,99366.98
2017-10-01T21:22:30.003Z,99367.33
2017-10-01T21:24:57.910Z,99369.65
2017-10-01T21:27:25.430Z,99370.11
2017-10-01T21:29:52.932Z,99359.09
2017-10-01T21:32:20.531Z,99357.02
2017-10-01T21:34:49.623Z,99356.25
2017-10-01T21:37:17.634Z,99351.57
2017-10-01T21:39:45.171Z,99353.31
2017-10-01T21:42:12.688Z,99346.21
2017-10-01T21:44:40.905Z,99352.58
2017-10-01T21:47:09.135Z,99341.66
2017-10-01T21:49:37.446Z,99342.14
2017-10-01T21:52:04.953Z,99340.95
2017-10-01T21:54:32.937Z,99345.70
2017-10-01T21:57:01.636Z,99351.94
2017-10-01T21:59:29.154Z,99354.11
2017-10-01T22:01:56.615Z,99354.13
2017-10-01T22:04:24.092Z,99359.78
2017-10-01T22:06:51.625Z,99351.11
2017-10-01T22:09:19.801Z,99354.91
2017-10-01T22:11:47.301Z,99352.50
2017-10-01T22:14:14.785Z,99351.27
2017-10-01T22:16:43.038Z,99349.89
2017-10-01T22:19:10.514Z,99354.95
2017-10-01T22:21:37.980Z,99353.83
2017-10-01T22:24:05.467Z,99350.39
2017-10-01T22:26:32.992Z,99352.23
2017-10-01T22:29:00.920Z,99344.63
2017-10-01T22:31:28.407Z,99335.78
2017-10-01T22:33:55.878Z,99319.75
2017-10-01T22:36:23.358Z,99321.85
2017-10-01T22:38:50.821Z,99314.93
2017-10-01T22:41:18.294Z,99311.42
2017-10-01T22:43:45.749Z,99292.13
2017-10-01T22:46:13.205Z,99303.05
2017-10-01T22:48:40.709Z,99309.20
2017-10-01T22:51:08.176Z,99306.52
2017-10-01T22:53:35.657Z,99301.40
2017-10-01T22:56:03.121Z,99302.95
2017-10-01T22:58:30.615Z,99304.72
2017-10-01T23:00:58.111Z,99290.88
2017-10-01T23:03:25.597Z,99301.92
2017-10-01T23:05:53.070Z,99303.39
2017-10-01T23:08:20.716Z,99302.08
2017-10-01T23:10:48.205Z,99301.71
2017-10-01T23:13:15.665Z,99301.93
2017-10-01T23:15:43.177Z,99297.53
2017-10-01T23:18:10.801Z,99295.27
2017-10-01T23:20:38.301Z,99295.22
2017-10-01T23:23:05.754Z,99298.06
2017-10-01T23:25:33.257Z,99304.07
2017-10-01T23:28:00.712Z,99311.76
2017-10-01T23:30:28.210Z,99310.66
2017-10-01T23:32:55.670Z,99311.44
2017-10-01T23:35:23.163Z,99303.60
2017-10-01T23:37:50.619Z,99295.02
2017-10-01T23:40:18.116Z,99290.38
2017-10-01T23:42:45.589Z,99301.41
2017-10-01T23:45:13.093Z,99298.38
2017-10-01T23:47:40.565Z,99308.72
2017-10-01T23:50:08.064Z,99310.14
2017-10-01T23:52:35.525Z,99306.84
2017-10-01T23:55:03.011Z,99301.14
2017-10-01T23:57:30.501Z,99309.06
2017-10-01T23:59:57.992Z,99286.94
